createdAt,value
2019-05-06T00:00:06.639Z,0.00
2019-05-06T00:01:06.627Z,0.00
2019-05-06T00:02:06.616Z,0.00
2019-05-06T00:03:06.647Z,0.00
2019-05-06T00:04:06.615Z,0.00
2019-05-06T00:05:06.588Z,0.00
2019-05-06T00:06:06.574Z,0.00
2019-05-06T00:07:06.573Z,0.00
2019-05-06T00:08:06.554Z,0.00
2019-05-06T00:09:06.587Z,0.00
2019-05-06T00:10:06.546Z,0.00
2019-05-06T00:11:06.525Z,0.00
2019-05-06T00:12:06.511Z,0.00
2019-05-06T00:13:06.499Z,0.00
2019-05-06T00:14:06.504Z,0.00
2019-05-06T00:15:06.519Z,0.00
2019-05-06T00:16:06.473Z,0.00
2019-05-06T00:17:06.459Z,0.00
2019-05-06T00:18:06.450Z,0.00
2019-05-06T00:19:06.437Z,0.00
2019-05-06T00:20:06.470Z,0.00
2019-05-06T00:21:06.454Z,0.00
2019-05-06T00:22:06.409Z,0.00
2019-05-06T00:23:06.396Z,0.00
2019-05-06T00:24:06.384Z,0.00
2019-05-06T00:25:06.382Z,0.00
2019-05-06T00:26:06.364Z,0.00
2019-05-06T00:27:06.389Z,0.00
2019-05-06T00:28:06.344Z,0.00
2019-05-06T00:29:06.335Z,0.00
2019-05-06T00:30:06.332Z,0.00
2019-05-06T00:31:12.834Z,0.00
2019-05-06T00:32:07.301Z,0.00
2019-05-06T00:33:06.321Z,0.00
2019-05-06T00:34:06.277Z,0.00
2019-05-06T00:35:06.281Z,0.00
2019-05-06T00:36:06.258Z,0.00
2019-05-06T00:37:06.246Z,0.00
2019-05-06T00:38:06.249Z,0.00
2019-05-06T00:39:06.266Z,0.00
2019-05-06T00:40:06.225Z,0.00
2019-05-06T00:41:06.206Z,0.00
2019-05-06T00:42:06.196Z,0.00
2019-05-06T00:43:06.191Z,0.00
2019-05-06T00:44:06.176Z,0.00
2019-05-06T00:45:06.203Z,0.00
2019-05-06T00:46:06.157Z,0.00
2019-05-06T00:47:06.147Z,0.00
2019-05-06T00:48:06.131Z,0.00
2019-05-06T00:49:06.126Z,0.00
2019-05-06T00:50:06.170Z,0.00
2019-05-06T00:51:06.102Z,0.00
2019-05-06T00:52:06.088Z,0.00
2019-05-06T00:53:06.083Z,0.00
2019-05-06T00:54:06.068Z,0.00
2019-05-06T00:55:06.071Z,0.00
2019-05-06T00:56:06.095Z,0.00
2019-05-06T00:57:06.048Z,0.00
2019-05-06T00:58:06.049Z,0.00
2019-05-06T00:59:06.041Z,0.00
2019-05-06T01:00:06.055Z,0.00
2019-05-06T01:01:05.995Z,0.00
2019-05-06T01:02:06.073Z,0.00
2019-05-06T01:03:05.973Z,0.00
2019-05-06T01:04:05.966Z,0.00
2019-05-06T01:05:05.962Z,0.00
2019-05-06T01:06:05.947Z,0.00
2019-05-06T01:07:05.938Z,0.00
2019-05-06T01:08:05.968Z,0.00
2019-05-06T01:09:05.910Z,0.00
2019-05-06T01:10:05.934Z,0.00
2019-05-06T01:11:05.889Z,0.00
2019-05-06T01:12:05.879Z,0.00
2019-05-06T01:13:05.879Z,0.00
2019-05-06T01:14:05.902Z,0.00
2019-05-06T01:15:05.845Z,0.00
2019-05-06T01:16:05.848Z,0.00
2019-05-06T01:17:05.832Z,0.00
2019-05-06T01:18:05.819Z,0.00
2019-05-06T01:19:05.810Z,0.00
2019-05-06T01:20:05.846Z,0.00
2019-05-06T01:21:05.793Z,0.00
2019-05-06T01:22:05.772Z,0.00
2019-05-06T01:23:05.763Z,0.00
2019-05-06T01:24:05.751Z,0.00
2019-05-06T01:25:05.740Z,0.00
2019-05-06T01:26:05.789Z,0.00
2019-05-06T01:27:05.723Z,0.00
2019-05-06T01:28:05.708Z,0.00
2019-05-06T01:29:05.699Z,0.00
2019-05-06T01:30:05.690Z,0.00
2019-05-06T01:31:05.686Z,0.00
2019-05-06T01:32:05.706Z,0.00
2019-05-06T01:33:05.656Z,0.00
2019-05-06T01:34:05.644Z,0.00
2019-05-06T01:35:05.636Z,0.00
2019-05-06T01:36:05.635Z,0.00
2019-05-06T01:37:05.614Z,0.00
2019-05-06T01:38:05.625Z,0.00
2019-05-06T01:39:05.592Z,0.00
2019-05-06T01:40:05.582Z,0.00
2019-05-06T01:41:05.587Z,0.00
2019-05-06T01:42:05.560Z,0.00
2019-05-06T01:43:05.554Z,0.00
2019-05-06T01:44:05.562Z,0.00
2019-05-06T01:45:05.529Z,0.00
2019-05-06T01:46:05.530Z,0.00
2019-05-06T01:47:05.508Z,0.00
2019-05-06T01:48:05.497Z,0.00
2019-05-06T01:49:05.487Z,0.00
2019-05-06T01:50:05.509Z,0.00
2019-05-06T01:51:05.477Z,0.00
2019-05-06T01:52:05.454Z,0.00
2019-05-06T01:53:05.447Z,0.00
2019-05-06T01:54:05.436Z,0.00
2019-05-06T01:55:05.423Z,0.00
2019-05-06T01:56:05.463Z,0.00
2019-05-06T01:57:05.404Z,0.00
2019-05-06T01:58:05.391Z,0.00
2019-05-06T01:59:05.381Z,0.00
2019-05-06T02:00:05.383Z,0.00
2019-05-06T02:01:05.370Z,0.00
2019-05-06T02:02:05.380Z,0.00
2019-05-06T02:03:05.339Z,0.00
2019-05-06T02:04:05.329Z,0.00
2019-05-06T02:05:05.324Z,0.00
2019-05-06T02:06:05.334Z,0.00
2019-05-06T02:07:05.299Z,0.00
2019-05-06T02:08:05.338Z,0.00
2019-05-06T02:09:05.277Z,0.00
2019-05-06T02:10:05.264Z,0.00
2019-05-06T02:11:05.260Z,0.00
2019-05-06T02:12:05.259Z,0.00
2019-05-06T02:13:05.234Z,0.00
2019-05-06T02:14:05.265Z,0.00
2019-05-06T02:15:05.212Z,0.00
2019-05-06T02:16:05.203Z,0.00
2019-05-06T02:17:05.208Z,0.00
2019-05-06T02:18:05.191Z,0.00
2019-05-06T02:19:05.170Z,0.00
2019-05-06T02:20:05.197Z,0.00
2019-05-06T02:21:05.572Z,0.00
2019-05-06T02:22:05.148Z,0.00
2019-05-06T02:23:05.150Z,0.00
2019-05-06T02:24:05.118Z,0.00
2019-05-06T02:25:05.138Z,0.00
2019-05-06T02:26:05.096Z,0.00
2019-05-06T02:27:05.099Z,0.00
2019-05-06T02:28:05.098Z,0.00
2019-05-06T02:29:05.081Z,0.00
2019-05-06T02:30:05.697Z,0.00
2019-05-06T02:31:05.453Z,0.00
2019-05-06T02:32:17.061Z,0.00
2019-05-06T02:33:06.032Z,0.00
2019-05-06T02:34:05.341Z,0.00
2019-05-06T02:35:05.424Z,0.00
2019-05-06T02:36:06.616Z,0.00
2019-05-06T02:37:06.343Z,0.00
2019-05-06T02:38:05.189Z,0.00
2019-05-06T02:39:04.965Z,0.00
2019-05-06T02:40:04.961Z,0.00
2019-05-06T02:41:04.947Z,0.00
2019-05-06T02:42:04.987Z,0.00
2019-05-06T02:43:04.919Z,0.00
2019-05-06T02:44:04.918Z,0.00
2019-05-06T02:45:04.896Z,0.00
2019-05-06T02:46:04.888Z,0.00
2019-05-06T02:47:04.887Z,0.00
2019-05-06T02:48:04.912Z,0.00
2019-05-06T02:49:04.856Z,0.00
2019-05-06T02:50:04.935Z,0.00
2019-05-06T02:51:04.839Z,0.00
2019-05-06T02:52:04.834Z,0.00
2019-05-06T02:53:04.815Z,0.00
2019-05-06T02:54:04.834Z,0.00
2019-05-06T02:55:06.447Z,0.00
2019-05-06T02:56:04.835Z,0.00
2019-05-06T02:57:04.787Z,0.00
2019-05-06T02:58:04.767Z,0.00
2019-05-06T02:59:04.750Z,0.00
2019-05-06T03:00:05.393Z,0.00
2019-05-06T03:01:04.737Z,0.00
2019-05-06T03:02:04.727Z,0.00
2019-05-06T03:03:04.711Z,0.00
2019-05-06T03:04:04.924Z,0.00
2019-05-06T03:05:04.721Z,0.00
2019-05-06T03:06:04.807Z,0.00
2019-05-06T03:07:04.679Z,0.00
2019-05-06T03:08:04.692Z,0.00
2019-05-06T03:09:04.663Z,0.00
2019-05-06T03:10:04.640Z,0.00
2019-05-06T03:11:04.660Z,0.00
2019-05-06T03:12:04.672Z,0.00
2019-05-06T03:13:04.603Z,0.00
2019-05-06T03:14:04.601Z,0.00
2019-05-06T03:15:04.587Z,0.00
2019-05-06T03:16:05.760Z,0.00
2019-05-06T03:17:04.566Z,0.00
2019-05-06T03:18:04.594Z,0.00
2019-05-06T03:19:04.548Z,0.00
2019-05-06T03:20:04.656Z,0.00
2019-05-06T03:21:04.523Z,0.00
2019-05-06T03:22:04.511Z,0.00
2019-05-06T03:23:04.526Z,0.00
2019-05-06T03:24:07.389Z,0.00
2019-05-06T03:25:06.910Z,0.00
2019-05-06T03:26:06.513Z,0.00
2019-05-06T03:27:05.006Z,0.00
2019-05-06T03:28:04.536Z,0.00
2019-05-06T03:29:04.438Z,0.00
2019-05-06T03:30:04.640Z,4.00
2019-05-06T03:31:06.640Z,4.00
2019-05-06T03:32:06.980Z,4.00
2019-05-06T03:34:27.854Z,4.00
2019-05-06T03:35:25.297Z,4.00
2019-05-06T03:36:14.897Z,4.00
2019-05-06T03:37:07.583Z,8.00
2019-05-06T03:38:04.351Z,8.00
2019-05-06T03:39:04.333Z,12.00
2019-05-06T03:40:04.321Z,12.00
2019-05-06T03:41:04.325Z,12.00
2019-05-06T03:42:04.901Z,16.00
2019-05-06T03:43:04.308Z,12.00
2019-05-06T03:44:04.283Z,20.00
2019-05-06T03:45:04.543Z,20.00
2019-05-06T03:46:04.717Z,24.00
2019-05-06T03:47:05.760Z,28.00
2019-05-06T03:48:05.934Z,36.00
2019-05-06T03:49:04.226Z,36.00
2019-05-06T03:50:04.866Z,44.00
2019-05-06T03:51:04.376Z,52.00
2019-05-06T03:52:04.221Z,56.00
2019-05-06T03:53:04.235Z,64.00
2019-05-06T03:54:04.253Z,72.00
2019-05-06T03:55:04.348Z,84.00
2019-05-06T03:56:04.153Z,96.00
2019-05-06T03:57:04.154Z,108.00
2019-05-06T03:58:04.196Z,120.00
2019-05-06T03:59:04.121Z,132.00
2019-05-06T04:00:05.033Z,152.00
2019-05-06T04:01:04.134Z,168.00
2019-05-06T04:02:05.168Z,188.00
2019-05-06T04:03:04.089Z,208.00
2019-05-06T04:04:04.091Z,228.00
2019-05-06T04:05:04.402Z,248.00
2019-05-06T04:06:04.685Z,272.00
2019-05-06T04:07:04.069Z,292.00
2019-05-06T04:08:04.197Z,316.00
2019-05-06T04:09:04.017Z,344.00
2019-05-06T04:10:04.212Z,372.00
2019-05-06T04:11:04.041Z,400.00
2019-05-06T04:12:04.002Z,432.00
2019-05-06T04:13:04.370Z,460.00
2019-05-06T04:14:03.970Z,492.00
2019-05-06T04:15:04.479Z,528.00
2019-05-06T04:16:04.111Z,560.00
2019-05-06T04:17:03.998Z,596.00
2019-05-06T04:18:04.189Z,636.00
2019-05-06T04:19:04.313Z,680.00
2019-05-06T04:20:04.244Z,720.00
2019-05-06T04:21:04.294Z,768.00
2019-05-06T04:22:03.979Z,816.00
2019-05-06T04:23:06.359Z,864.00
2019-05-06T04:24:04.422Z,920.00
2019-05-06T04:25:04.284Z,972.00
2019-05-06T04:26:03.859Z,1024.00
2019-05-06T04:27:03.829Z,1084.00
2019-05-06T04:28:03.837Z,1144.00
2019-05-06T04:29:04.174Z,1212.00
2019-05-06T04:30:04.907Z,1276.00
2019-05-06T04:31:03.795Z,1340.00
2019-05-06T04:32:03.779Z,1404.00
2019-05-06T04:33:03.762Z,1468.00
2019-05-06T04:34:12.809Z,1524.00
2019-05-06T04:35:04.867Z,1584.00
2019-05-06T04:36:03.955Z,1644.00
2019-05-06T04:37:03.777Z,1708.00
2019-05-06T04:38:03.712Z,1756.00
2019-05-06T04:39:04.378Z,1804.00
2019-05-06T04:40:04.513Z,1856.00
2019-05-06T04:41:03.715Z,1916.00
2019-05-06T04:42:03.716Z,1976.00
2019-05-06T04:43:03.879Z,2044.00
2019-05-06T04:44:03.661Z,2112.00
2019-05-06T04:45:04.703Z,2196.00
2019-05-06T04:46:03.725Z,2284.00
2019-05-06T04:47:05.465Z,2388.00
2019-05-06T04:48:03.763Z,2488.00
2019-05-06T04:49:04.157Z,2580.00
2019-05-06T04:50:04.785Z,2660.00
2019-05-06T04:51:03.711Z,2724.00
2019-05-06T04:52:03.814Z,2780.00
2019-05-06T04:53:05.115Z,2828.00
2019-05-06T04:54:04.254Z,2872.00
2019-05-06T04:55:03.885Z,2928.00
2019-05-06T04:56:04.187Z,2988.00
2019-05-06T04:57:05.102Z,3056.00
2019-05-06T04:58:04.144Z,3124.00
2019-05-06T04:59:06.209Z,3216.00
2019-05-06T05:00:04.267Z,3292.00
2019-05-06T05:01:04.271Z,3392.00
2019-05-06T05:02:03.464Z,3504.00
2019-05-06T05:03:03.455Z,3612.00
2019-05-06T05:04:03.761Z,3704.00
2019-05-06T05:05:04.331Z,3800.00
2019-05-06T05:06:05.903Z,3896.00
2019-05-06T05:07:03.594Z,3996.00
2019-05-06T05:08:03.422Z,4080.00
2019-05-06T05:09:03.402Z,4160.00
2019-05-06T05:10:03.694Z,4240.00
2019-05-06T05:11:03.695Z,4324.00
2019-05-06T05:12:03.402Z,4420.00
2019-05-06T05:13:03.678Z,4520.00
2019-05-06T05:14:03.356Z,4608.00
2019-05-06T05:15:03.403Z,4692.00
2019-05-06T05:16:03.333Z,4772.00
2019-05-06T05:17:03.308Z,4860.00
2019-05-06T05:18:03.315Z,4964.00
2019-05-06T05:19:03.338Z,5068.00
2019-05-06T05:20:03.290Z,5164.00
2019-05-06T05:21:03.272Z,5256.00
2019-05-06T05:22:03.272Z,5348.00
2019-05-06T05:23:03.263Z,5420.00
2019-05-06T05:24:03.290Z,5496.00
2019-05-06T05:25:03.618Z,5600.00
2019-05-06T05:26:03.210Z,5740.00
2019-05-06T05:27:03.259Z,5892.00
2019-05-06T05:28:03.194Z,6056.00
2019-05-06T05:29:03.232Z,6224.00
2019-05-06T05:30:03.166Z,6384.00
2019-05-06T05:31:03.220Z,6524.00
2019-05-06T05:32:03.147Z,6652.00
2019-05-06T05:33:03.134Z,6748.00
2019-05-06T05:34:03.134Z,6808.00
2019-05-06T05:35:03.118Z,6884.00
2019-05-06T05:36:03.117Z,6972.00
2019-05-06T05:37:03.174Z,7084.00
2019-05-06T05:38:03.180Z,7236.00
2019-05-06T05:39:03.451Z,7384.00
2019-05-06T05:40:03.262Z,7532.00
2019-05-06T05:41:03.230Z,7696.00
2019-05-06T05:42:03.052Z,7772.00
2019-05-06T05:43:03.085Z,7748.00
2019-05-06T05:44:03.031Z,7724.00
2019-05-06T05:45:03.009Z,7680.00
2019-05-06T05:46:03.076Z,7576.00
2019-05-06T05:47:03.535Z,7572.00
2019-05-06T05:48:03.051Z,7764.00
2019-05-06T05:49:03.031Z,8068.00
2019-05-06T05:50:03.262Z,8452.00
2019-05-06T05:51:03.395Z,8840.00
2019-05-06T05:52:03.549Z,9116.00
2019-05-06T05:53:02.927Z,9356.00
2019-05-06T05:54:02.958Z,9624.00
2019-05-06T05:55:02.977Z,9916.00
2019-05-06T05:56:02.908Z,10200.00
2019-05-06T05:57:02.885Z,10504.00
2019-05-06T05:58:03.276Z,10784.00
2019-05-06T05:59:03.446Z,10988.00
2019-05-06T06:00:03.894Z,11232.00
2019-05-06T06:01:04.169Z,11428.00
2019-05-06T06:02:03.867Z,11560.00
2019-05-06T06:03:03.029Z,11548.00
2019-05-06T06:04:03.243Z,11488.00
2019-05-06T06:05:02.841Z,11488.00
2019-05-06T06:06:03.217Z,11496.00
2019-05-06T06:07:02.920Z,11600.00
2019-05-06T06:08:03.039Z,11932.00
2019-05-06T06:09:03.194Z,12456.00
2019-05-06T06:10:02.860Z,13204.00
2019-05-06T06:11:04.319Z,13816.00
2019-05-06T06:12:02.842Z,14308.00
2019-05-06T06:13:02.710Z,15128.00
2019-05-06T06:14:03.030Z,15584.00
2019-05-06T06:15:02.710Z,16000.00
2019-05-06T06:16:02.920Z,16256.00
2019-05-06T06:17:02.669Z,16640.00
2019-05-06T06:18:03.081Z,17344.00
2019-05-06T06:19:03.220Z,17088.00
2019-05-06T06:20:02.772Z,16768.00
2019-05-06T06:21:17.040Z,16704.00
2019-05-06T06:22:03.620Z,16736.00
2019-05-06T06:23:02.993Z,16960.00
2019-05-06T06:24:02.871Z,17792.00
2019-05-06T06:25:04.158Z,17888.00
2019-05-06T06:26:03.875Z,20160.00
2019-05-06T06:27:03.119Z,18592.00
2019-05-06T06:28:02.748Z,17984.00
2019-05-06T06:29:03.283Z,18432.00
2019-05-06T06:30:02.587Z,18944.00
2019-05-06T06:31:03.049Z,22624.00
2019-05-06T06:32:03.204Z,22336.00
2019-05-06T06:33:02.683Z,27392.00
2019-05-06T06:34:02.487Z,27776.00
2019-05-06T06:35:10.609Z,22272.00
2019-05-06T06:36:03.468Z,22944.00
2019-05-06T06:37:02.706Z,21984.00
2019-05-06T06:38:02.787Z,25216.00
2019-05-06T06:39:02.434Z,21984.00
2019-05-06T06:40:02.758Z,23392.00
2019-05-06T06:41:02.852Z,25536.00
2019-05-06T06:42:02.860Z,29632.00
2019-05-06T06:43:02.411Z,33056.00
2019-05-06T06:44:02.423Z,30880.00
2019-05-06T06:45:03.460Z,25824.00
2019-05-06T06:46:02.572Z,24672.00
2019-05-06T06:47:02.346Z,26432.00
2019-05-06T06:48:03.126Z,25760.00
2019-05-06T06:49:03.274Z,27072.00
2019-05-06T06:50:02.784Z,25088.00
2019-05-06T06:51:03.436Z,26272.00
2019-05-06T06:52:02.925Z,27040.00
2019-05-06T06:53:03.063Z,26720.00
2019-05-06T06:54:02.640Z,26592.00
2019-05-06T06:55:02.629Z,26304.00
2019-05-06T06:56:02.262Z,24864.00
2019-05-06T06:57:08.740Z,25440.00
2019-05-06T06:58:03.233Z,24608.00
2019-05-06T06:59:02.660Z,23008.00
2019-05-06T07:00:04.082Z,21248.00
2019-05-06T07:01:03.125Z,20288.00
2019-05-06T07:02:02.764Z,20000.00
2019-05-06T07:03:02.699Z,20192.00
2019-05-06T07:04:09.621Z,20576.00
2019-05-06T07:05:03.168Z,20160.00
2019-05-06T07:06:02.392Z,20416.00
2019-05-06T07:07:02.941Z,20544.00
2019-05-06T07:08:02.321Z,19648.00
2019-05-06T07:09:02.703Z,19104.00
2019-05-06T07:10:02.748Z,19392.00
2019-05-06T07:11:02.297Z,18976.00
2019-05-06T07:12:03.494Z,18112.00
2019-05-06T07:13:02.894Z,17984.00
2019-05-06T07:14:02.638Z,17312.00
2019-05-06T07:15:02.502Z,17024.00
2019-05-06T07:16:02.922Z,17728.00
2019-05-06T07:17:02.484Z,20128.00
2019-05-06T07:18:02.503Z,30752.00
2019-05-06T07:19:03.072Z,37888.00
2019-05-06T07:20:02.869Z,38688.00
2019-05-06T07:21:05.207Z,38624.00
2019-05-06T07:22:02.914Z,37568.00
2019-05-06T07:23:02.024Z,39584.00
2019-05-06T07:24:02.214Z,40672.00
2019-05-06T07:25:03.755Z,41760.00
2019-05-06T07:26:03.017Z,43072.00
2019-05-06T07:27:03.005Z,42368.00
2019-05-06T07:28:02.984Z,40032.00
2019-05-06T07:29:04.027Z,47840.00
2019-05-06T07:30:03.214Z,49344.00
2019-05-06T07:31:17.892Z,49696.00
2019-05-06T07:32:02.881Z,49440.00
2019-05-06T07:33:03.695Z,48448.00
2019-05-06T07:34:02.577Z,45664.00
2019-05-06T07:35:02.393Z,25472.00
2019-05-06T07:36:02.227Z,23488.00
2019-05-06T07:37:03.476Z,22688.00
2019-05-06T07:38:02.366Z,21984.00
2019-05-06T07:39:04.135Z,22048.00
2019-05-06T07:40:03.099Z,21760.00
2019-05-06T07:41:04.574Z,21728.00
2019-05-06T07:42:02.455Z,22336.00
2019-05-06T07:43:02.304Z,22720.00
2019-05-06T07:44:02.187Z,22400.00
2019-05-06T07:45:06.498Z,22720.00
2019-05-06T07:46:02.744Z,23872.00
2019-05-06T07:47:03.543Z,25824.00
2019-05-06T07:48:03.571Z,50336.00
2019-05-06T07:49:03.315Z,31232.00
2019-05-06T07:50:02.439Z,24064.00
2019-05-06T07:51:03.058Z,24672.00
2019-05-06T07:52:02.935Z,34816.00
2019-05-06T07:53:02.376Z,44576.00
2019-05-06T07:54:02.842Z,51808.00
2019-05-06T07:55:02.515Z,42144.00
2019-05-06T07:56:03.658Z,45824.00
2019-05-06T07:57:02.417Z,39616.00
2019-05-06T07:58:02.918Z,54112.00
2019-05-06T07:59:03.210Z,50240.00
2019-05-06T08:00:03.362Z,39744.00
2019-05-06T08:01:02.636Z,34688.00
2019-05-06T08:02:02.237Z,17568.00
2019-05-06T08:03:02.517Z,18944.00
2019-05-06T08:04:02.573Z,16928.00
2019-05-06T08:05:02.563Z,15784.00
2019-05-06T08:06:02.684Z,15528.00
2019-05-06T08:07:03.160Z,16056.00
2019-05-06T08:08:03.605Z,16688.00
2019-05-06T08:09:03.181Z,20480.00
2019-05-06T08:10:02.164Z,31488.00
2019-05-06T08:11:02.736Z,30080.00
2019-05-06T08:12:02.786Z,27136.00
2019-05-06T08:13:02.767Z,29920.00
2019-05-06T08:14:02.208Z,30400.00
2019-05-06T08:15:04.989Z,58816.00
2019-05-06T08:16:02.203Z,57408.00
2019-05-06T08:17:02.232Z,57696.00
2019-05-06T08:18:03.520Z,38880.00
2019-05-06T08:19:02.780Z,20768.00
2019-05-06T08:20:02.501Z,19936.00
2019-05-06T08:21:02.490Z,19776.00
2019-05-06T08:22:02.756Z,19424.00
2019-05-06T08:23:02.094Z,19104.00
2019-05-06T08:24:02.726Z,18976.00
2019-05-06T08:25:03.453Z,18688.00
2019-05-06T08:26:11.558Z,18304.00
2019-05-06T08:27:02.923Z,18048.00
2019-05-06T08:28:02.308Z,17728.00
2019-05-06T08:29:02.791Z,17536.00
2019-05-06T08:30:02.399Z,17440.00
2019-05-06T08:31:02.362Z,17280.00
2019-05-06T08:32:02.974Z,17600.00
2019-05-06T08:33:02.264Z,18144.00
2019-05-06T08:34:02.694Z,18464.00
2019-05-06T08:35:03.311Z,18496.00
2019-05-06T08:36:08.913Z,18560.00
2019-05-06T08:37:02.482Z,18944.00
2019-05-06T08:38:02.378Z,19488.00
2019-05-06T08:39:02.836Z,20480.00
2019-05-06T08:40:03.146Z,21920.00
2019-05-06T08:41:02.730Z,23456.00
2019-05-06T08:42:02.658Z,24384.00
2019-05-06T08:43:02.214Z,24320.00
2019-05-06T08:44:02.587Z,24256.00
2019-05-06T08:45:02.212Z,24736.00
2019-05-06T08:46:03.166Z,25088.00
2019-05-06T08:47:02.537Z,24576.00
2019-05-06T08:48:02.969Z,23968.00
2019-05-06T08:49:03.091Z,25344.00
2019-05-06T08:50:02.452Z,26144.00
2019-05-06T08:51:02.848Z,23904.00
2019-05-06T08:52:02.403Z,24352.00
2019-05-06T08:53:04.826Z,26336.00
2019-05-06T08:54:03.036Z,30112.00
2019-05-06T08:55:04.327Z,31520.00
2019-05-06T08:56:01.969Z,33408.00
2019-05-06T08:57:02.572Z,40384.00
2019-05-06T08:58:02.905Z,52928.00
2019-05-06T08:59:03.028Z,58144.00
2019-05-06T09:00:03.353Z,77728.00
2019-05-06T09:01:02.862Z,68576.00
2019-05-06T09:02:03.059Z,74368.00
2019-05-06T09:03:04.033Z,66432.00
2019-05-06T09:04:11.412Z,34784.00
2019-05-06T09:05:02.879Z,35168.00
2019-05-06T09:06:03.003Z,35584.00
2019-05-06T09:07:02.793Z,38336.00
2019-05-06T09:08:03.234Z,38080.00
2019-05-06T09:09:02.457Z,46912.00
2019-05-06T09:10:02.555Z,46208.00
2019-05-06T09:11:02.955Z,35264.00
2019-05-06T09:12:02.716Z,34080.00
2019-05-06T09:13:02.000Z,33888.00
2019-05-06T09:14:03.203Z,41152.00
2019-05-06T09:15:03.280Z,32864.00
2019-05-06T09:16:02.495Z,31424.00
2019-05-06T09:17:02.820Z,31520.00
2019-05-06T09:18:02.817Z,30848.00
2019-05-06T09:19:04.336Z,32416.00
2019-05-06T09:20:02.631Z,40416.00
2019-05-06T09:21:02.852Z,32640.00
2019-05-06T09:22:02.538Z,31840.00
2019-05-06T09:23:04.235Z,76096.00
2019-05-06T09:24:02.238Z,34880.00
2019-05-06T09:25:02.428Z,24640.00
2019-05-06T09:26:02.680Z,22688.00
2019-05-06T09:27:02.829Z,22080.00
2019-05-06T09:28:02.575Z,22240.00
2019-05-06T09:29:02.246Z,23648.00
2019-05-06T09:30:02.931Z,71104.00
2019-05-06T09:31:02.239Z,59776.00
2019-05-06T09:32:01.822Z,42112.00
2019-05-06T09:33:02.515Z,66208.00
2019-05-06T09:34:02.695Z,82848.00
2019-05-06T09:35:02.819Z,92320.00
2019-05-06T09:36:02.815Z,88608.00
2019-05-06T09:37:03.377Z,91584.00
2019-05-06T09:38:02.218Z,104896.00
2019-05-06T09:39:02.309Z,90432.00
2019-05-06T09:40:02.761Z,79808.00
2019-05-06T09:41:00.483Z,64224.00
2019-05-06T09:42:02.225Z,79072.00
2019-05-06T09:43:04.464Z,37088.00
2019-05-06T09:44:02.940Z,22336.00
2019-05-06T09:45:02.298Z,19360.00
2019-05-06T09:46:02.398Z,18464.00
2019-05-06T09:47:02.430Z,17952.00
2019-05-06T09:48:00.422Z,17408.00
2019-05-06T09:49:00.397Z,17152.00
2019-05-06T09:50:02.739Z,17536.00
2019-05-06T09:51:02.766Z,18112.00
2019-05-06T09:52:02.507Z,18688.00
2019-05-06T09:53:02.400Z,19616.00
2019-05-06T09:54:03.824Z,20832.00
2019-05-06T09:55:03.276Z,22272.00
2019-05-06T09:56:00.398Z,23712.00
2019-05-06T09:57:02.281Z,24992.00
2019-05-06T09:58:03.204Z,25920.00
2019-05-06T09:59:02.182Z,26656.00
2019-05-06T10:00:04.466Z,27168.00
2019-05-06T10:01:02.521Z,28128.00
2019-05-06T10:02:00.254Z,29376.00
2019-05-06T10:03:02.971Z,31168.00
2019-05-06T10:04:03.286Z,32000.00
2019-05-06T10:05:03.329Z,32480.00
2019-05-06T10:06:02.530Z,32672.00
2019-05-06T10:07:02.512Z,33216.00
2019-05-06T10:08:00.187Z,33856.00
2019-05-06T10:09:04.298Z,34688.00
2019-05-06T10:10:00.165Z,35264.00
2019-05-06T10:11:00.209Z,35488.00
2019-05-06T10:12:02.074Z,35744.00
2019-05-06T10:13:02.545Z,36000.00
2019-05-06T10:14:00.139Z,36544.00
2019-05-06T10:15:02.945Z,37408.00
2019-05-06T10:16:02.739Z,38368.00
2019-05-06T10:17:04.180Z,38400.00
2019-05-06T10:18:00.079Z,38784.00
2019-05-06T10:19:02.440Z,39264.00
2019-05-06T10:20:02.607Z,39456.00
2019-05-06T10:21:00.045Z,41152.00
2019-05-06T10:22:00.067Z,42656.00
2019-05-06T10:23:00.027Z,46496.00
2019-05-06T10:24:02.201Z,46400.00
2019-05-06T10:25:00.066Z,41856.00
2019-05-06T10:25:59.993Z,41664.00
2019-05-06T10:27:00.055Z,43328.00
2019-05-06T10:28:02.594Z,58944.00
2019-05-06T10:29:00.414Z,44192.00
2019-05-06T10:29:59.956Z,48864.00
2019-05-06T10:31:02.023Z,45312.00
2019-05-06T10:31:59.935Z,44032.00
2019-05-06T10:33:01.997Z,44448.00
2019-05-06T10:33:59.919Z,45984.00
2019-05-06T10:34:59.931Z,45408.00
2019-05-06T10:36:02.458Z,47552.00
2019-05-06T10:37:12.645Z,46784.00
2019-05-06T10:38:02.836Z,44896.00
2019-05-06T10:39:02.118Z,44096.00
2019-05-06T10:39:59.844Z,43776.00
2019-05-06T10:41:06.551Z,43168.00
2019-05-06T10:42:00.869Z,42272.00
2019-05-06T10:42:59.820Z,42048.00
2019-05-06T10:43:59.809Z,42432.00
2019-05-06T10:45:01.675Z,45120.00
2019-05-06T10:46:01.838Z,41504.00
2019-05-06T10:46:59.767Z,42304.00
2019-05-06T10:47:59.792Z,40448.00
2019-05-06T10:49:02.439Z,38400.00
2019-05-06T10:50:02.103Z,38784.00
2019-05-06T10:50:59.731Z,36576.00
2019-05-06T10:51:59.712Z,38112.00
2019-05-06T10:52:59.714Z,33824.00
2019-05-06T10:53:59.723Z,32512.00
2019-05-06T10:54:59.684Z,31808.00
2019-05-06T10:55:59.677Z,31232.00
2019-05-06T10:57:02.140Z,30720.00
2019-05-06T10:58:02.399Z,30816.00
2019-05-06T10:58:59.647Z,32128.00
2019-05-06T10:59:59.660Z,32416.00
2019-05-06T11:00:59.614Z,32928.00
2019-05-06T11:01:59.604Z,33152.00
2019-05-06T11:02:59.593Z,34048.00
2019-05-06T11:03:59.593Z,35936.00
2019-05-06T11:04:59.576Z,37952.00
2019-05-06T11:05:59.597Z,42592.00
2019-05-06T11:06:59.550Z,48544.00
2019-05-06T11:07:59.541Z,59200.00
2019-05-06T11:08:59.542Z,86816.00
2019-05-06T11:09:59.527Z,45792.00
2019-05-06T11:11:14.018Z,39232.00
2019-05-06T11:12:00.507Z,38752.00
2019-05-06T11:12:59.486Z,41664.00
2019-05-06T11:13:59.512Z,46112.00
2019-05-06T11:14:59.479Z,47616.00
2019-05-06T11:15:59.460Z,36896.00
2019-05-06T11:16:59.444Z,36416.00
2019-05-06T11:17:59.448Z,33824.00
2019-05-06T11:18:59.422Z,32736.00
2019-05-06T11:19:59.424Z,32032.00
2019-05-06T11:20:59.402Z,31264.00
2019-05-06T11:21:59.393Z,30496.00
2019-05-06T11:22:59.379Z,29280.00
2019-05-06T11:23:59.385Z,28064.00
2019-05-06T11:24:59.385Z,27936.00
2019-05-06T11:25:59.346Z,27072.00
2019-05-06T11:26:59.339Z,21856.00
2019-05-06T11:27:59.326Z,21024.00
2019-05-06T11:28:59.315Z,20640.00
2019-05-06T11:29:59.314Z,20864.00
2019-05-06T11:30:59.325Z,21280.00
2019-05-06T11:31:59.281Z,21696.00
2019-05-06T11:33:06.172Z,21856.00
2019-05-06T11:34:23.687Z,21984.00
2019-05-06T11:34:59.252Z,22144.00
2019-05-06T11:35:59.270Z,21984.00
2019-05-06T11:36:59.243Z,21664.00
2019-05-06T11:37:59.247Z,21504.00
2019-05-06T11:38:59.236Z,21632.00
2019-05-06T11:39:59.241Z,21952.00
2019-05-06T11:40:59.185Z,22432.00
2019-05-06T11:42:22.836Z,23168.00
2019-05-06T11:43:00.212Z,24064.00
2019-05-06T11:43:59.157Z,24736.00
2019-05-06T11:44:59.155Z,25248.00
2019-05-06T11:45:59.130Z,26016.00
2019-05-06T11:46:59.138Z,30688.00
2019-05-06T11:47:59.111Z,28800.00
2019-05-06T11:48:59.112Z,26240.00
2019-05-06T11:49:59.102Z,25376.00
2019-05-06T11:50:59.077Z,25760.00
2019-05-06T11:51:59.066Z,25632.00
2019-05-06T11:52:59.054Z,25856.00
2019-05-06T11:53:59.046Z,25920.00
2019-05-06T11:54:59.057Z,25920.00
2019-05-06T11:55:59.048Z,25888.00
2019-05-06T11:56:59.015Z,25792.00
2019-05-06T11:57:58.999Z,25824.00
2019-05-06T11:58:58.993Z,26208.00
2019-05-06T11:59:58.987Z,26880.00
2019-05-06T12:00:58.966Z,27232.00
2019-05-06T12:01:58.977Z,28320.00
2019-05-06T12:02:58.945Z,28992.00
2019-05-06T12:03:58.964Z,29280.00
2019-05-06T12:04:58.932Z,29312.00
2019-05-06T12:05:58.954Z,29152.00
2019-05-06T12:07:10.388Z,29152.00
2019-05-06T12:08:04.591Z,29312.00
2019-05-06T12:08:59.877Z,29760.00
2019-05-06T12:09:58.877Z,30400.00
2019-05-06T12:10:58.861Z,31488.00
2019-05-06T12:11:58.852Z,45856.00
2019-05-06T12:12:58.836Z,32992.00
2019-05-06T12:13:58.832Z,32096.00
2019-05-06T12:14:58.857Z,32192.00
2019-05-06T12:15:58.804Z,32704.00